createdAt,value
2018-03-25T00:00:52.048Z,19.20
2018-03-25T00:01:52.038Z,21.40
2018-03-25T00:02:52.017Z,19.20
2018-03-25T00:03:52.014Z,20.60
2018-03-25T00:04:52.006Z,19.70
2018-03-25T00:05:52.083Z,20.30
2018-03-25T00:06:51.986Z,19.80
2018-03-25T00:07:51.994Z,20.10
2018-03-25T00:08:51.978Z,19.90
2018-03-25T00:09:51.977Z,20.20
2018-03-25T00:10:51.974Z,21.20
2018-03-25T00:11:51.938Z,21.20
2018-03-25T00:12:51.950Z,20.60
2018-03-25T00:13:51.939Z,20.50
2018-03-25T00:14:51.948Z,20.30
2018-03-25T00:15:51.891Z,20.40
2018-03-25T00:16:51.889Z,21.80
2018-03-25T00:17:51.864Z,20.40
2018-03-25T00:18:51.853Z,20.40
2018-03-25T00:19:51.851Z,20.50
2018-03-25T00:20:51.842Z,20.80
2018-03-25T00:21:51.849Z,21.70
2018-03-25T00:22:51.835Z,22.10
2018-03-25T00:23:51.810Z,21.60
2018-03-25T00:24:51.816Z,21.20
2018-03-25T00:25:51.786Z,22.90
2018-03-25T00:26:51.776Z,22.40
2018-03-25T00:27:51.785Z,22.10
2018-03-25T00:28:51.753Z,21.50
2018-03-25T00:29:51.780Z,22.00
2018-03-25T00:30:51.777Z,22.00
2018-03-25T00:31:51.725Z,22.60
2018-03-25T00:32:51.708Z,22.80
2018-03-25T00:33:51.706Z,22.80
2018-03-25T00:34:51.694Z,22.10
2018-03-25T00:35:51.684Z,22.00
2018-03-25T00:36:51.673Z,22.50
2018-03-25T00:37:51.658Z,23.00
2018-03-25T00:38:51.704Z,23.00
2018-03-25T00:39:51.674Z,22.50
2018-03-25T00:40:51.715Z,23.30
2018-03-25T00:41:51.624Z,22.80
2018-03-25T00:42:52.311Z,24.80
2018-03-25T00:43:51.601Z,23.40
2018-03-25T00:44:51.587Z,22.30
2018-03-25T00:45:51.591Z,23.00
2018-03-25T00:46:51.568Z,24.70
2018-03-25T00:47:51.557Z,23.90
2018-03-25T00:48:51.548Z,23.70
2018-03-25T00:49:51.536Z,24.20
2018-03-25T00:50:51.549Z,23.20
2018-03-25T00:51:51.545Z,23.30
2018-03-25T00:52:51.557Z,26.10
2018-03-25T00:53:51.492Z,24.40
2018-03-25T00:54:51.519Z,24.50
2018-03-25T00:55:51.481Z,24.50
2018-03-25T00:56:51.489Z,23.30
2018-03-25T00:57:51.456Z,25.10
2018-03-25T00:58:51.447Z,25.30
2018-03-25T00:59:51.433Z,25.10
2018-03-25T01:00:51.424Z,25.20
2018-03-25T01:01:51.409Z,26.00
2018-03-25T01:02:51.416Z,24.80
2018-03-25T01:03:51.415Z,24.90
2018-03-25T01:04:51.387Z,25.00
2018-03-25T01:05:51.367Z,24.80
2018-03-25T01:06:51.354Z,26.50
2018-03-25T01:07:51.356Z,25.70
2018-03-25T01:08:51.345Z,24.90
2018-03-25T01:09:51.330Z,25.40
2018-03-25T01:10:51.341Z,25.60
2018-03-25T01:11:51.306Z,25.40
2018-03-25T01:12:51.299Z,25.80
2018-03-25T01:13:51.315Z,26.10
2018-03-25T01:14:51.292Z,26.40
2018-03-25T01:15:51.262Z,25.60
2018-03-25T01:16:51.247Z,25.50
2018-03-25T01:17:51.251Z,27.00
2018-03-25T01:18:51.233Z,26.20
2018-03-25T01:19:51.217Z,26.70
2018-03-25T01:20:51.325Z,26.90
2018-03-25T01:21:51.263Z,27.40
2018-03-25T01:22:51.192Z,27.30
2018-03-25T01:23:51.175Z,26.60
2018-03-25T01:24:51.161Z,26.40
2018-03-25T01:25:51.193Z,27.90
2018-03-25T01:26:51.141Z,27.30
2018-03-25T01:27:51.148Z,27.70
2018-03-25T01:28:51.120Z,27.20
2018-03-25T01:29:51.107Z,28.20
2018-03-25T01:30:51.104Z,27.20
2018-03-25T01:31:51.086Z,27.00
2018-03-25T01:32:51.104Z,28.00
2018-03-25T02:05:07.490Z,13.00
2018-03-25T02:06:07.459Z,29.20
2018-03-25T02:07:07.434Z,34.50
2018-03-25T02:08:07.449Z,35.90
2018-03-25T02:09:07.408Z,35.20
2018-03-25T02:10:07.391Z,35.10
2018-03-25T02:11:07.381Z,35.70
2018-03-25T02:12:07.364Z,34.50
2018-03-25T02:13:07.351Z,34.80
2018-03-25T02:14:07.336Z,34.00
2018-03-25T02:15:07.324Z,32.90
2018-03-25T02:16:07.315Z,35.10
2018-03-25T02:17:07.301Z,33.50
2018-03-25T02:18:07.290Z,32.90
2018-03-25T02:19:07.283Z,32.00
2018-03-25T02:20:07.276Z,32.80
2018-03-25T02:21:07.259Z,31.90
2018-03-25T02:22:07.253Z,31.20
2018-03-25T02:23:07.235Z,30.70
2018-03-25T02:24:07.229Z,30.90
2018-03-25T02:25:07.217Z,32.10
2018-03-25T02:26:07.203Z,31.30
2018-03-25T02:27:07.188Z,31.20
2018-03-25T02:28:07.203Z,31.20
2018-03-25T02:29:07.174Z,30.50
2018-03-25T02:30:07.163Z,29.80
2018-03-25T02:31:07.149Z,29.60
2018-03-25T02:32:07.139Z,28.80
2018-03-25T02:33:07.144Z,30.70
2018-03-25T02:34:07.117Z,29.10
2018-03-25T02:35:07.107Z,29.30
2018-03-25T02:36:07.100Z,28.60
2018-03-25T02:37:07.090Z,28.60
2018-03-25T02:38:07.082Z,29.40
2018-03-25T02:39:07.064Z,28.80
2018-03-25T02:40:07.056Z,28.30
2018-03-25T02:41:07.042Z,29.30
2018-03-25T02:42:07.029Z,28.10
2018-03-25T02:43:07.054Z,28.70
2018-03-25T02:44:07.013Z,27.80
2018-03-25T02:45:07.000Z,28.60
2018-03-25T02:46:06.990Z,27.60
2018-03-25T02:47:06.981Z,27.50
2018-03-25T02:48:06.973Z,28.70
2018-03-25T02:49:06.957Z,28.10
2018-03-25T02:50:06.951Z,28.30
2018-03-25T02:51:06.932Z,28.70
2018-03-25T02:52:06.930Z,29.30
2018-03-25T02:53:06.938Z,28.60
2018-03-25T02:54:06.910Z,27.90
2018-03-25T02:55:06.915Z,29.10
2018-03-25T02:56:06.890Z,30.10
2018-03-25T02:57:06.879Z,28.90
2018-03-25T02:58:06.871Z,28.30
2018-03-25T02:59:06.859Z,27.80
2018-03-25T03:00:06.846Z,27.90
2018-03-25T03:01:06.835Z,28.20
2018-03-25T03:02:06.849Z,28.70
2018-03-25T03:03:06.822Z,29.30
2018-03-25T03:04:06.809Z,29.10
2018-03-25T03:05:06.796Z,29.80
2018-03-25T03:06:06.787Z,28.10
2018-03-25T03:07:06.777Z,27.80
2018-03-25T03:08:06.768Z,29.10
2018-03-25T03:09:06.755Z,29.00
2018-03-25T03:10:06.750Z,29.50
2018-03-25T03:11:06.734Z,27.60
2018-03-25T03:12:06.726Z,28.50
2018-03-25T03:13:06.719Z,29.00
2018-03-25T03:14:06.705Z,28.80
2018-03-25T03:15:06.695Z,28.50
2018-03-25T03:16:06.687Z,30.00
2018-03-25T03:17:06.673Z,30.50
2018-03-25T03:18:06.684Z,30.00
2018-03-25T03:19:06.654Z,29.30
2018-03-25T03:20:06.648Z,29.80
2018-03-25T03:21:06.649Z,29.20
2018-03-25T03:22:06.629Z,28.40
2018-03-25T03:23:06.616Z,29.90
2018-03-25T03:24:06.606Z,29.70
2018-03-25T03:25:06.595Z,29.20
2018-03-25T03:26:06.585Z,28.80
2018-03-25T03:27:06.575Z,28.50
2018-03-25T03:28:06.565Z,29.70
2018-03-25T03:29:06.553Z,28.50
2018-03-25T03:30:06.547Z,28.90
2018-03-25T03:31:06.538Z,28.60
2018-03-25T03:32:06.524Z,28.60
2018-03-25T03:33:06.515Z,28.30
2018-03-25T03:34:06.505Z,29.50
2018-03-25T03:35:06.495Z,28.80
2018-03-25T03:36:06.484Z,29.50
2018-03-25T03:37:06.473Z,28.50
2018-03-25T03:38:06.468Z,28.10
2018-03-25T03:39:06.451Z,28.60
2018-03-25T03:40:06.445Z,28.40
2018-03-25T03:41:06.436Z,29.30
2018-03-25T03:42:06.413Z,29.30
2018-03-25T03:43:06.412Z,28.20
2018-03-25T03:44:06.404Z,27.40
2018-03-25T03:45:06.395Z,28.30
2018-03-25T03:46:06.419Z,27.50
2018-03-25T03:47:06.371Z,27.50
2018-03-25T03:48:06.374Z,27.90
2018-03-25T03:49:06.354Z,28.70
2018-03-25T03:50:06.350Z,31.40
2018-03-25T03:51:06.330Z,30.50
2018-03-25T03:52:06.322Z,31.30
2018-03-25T03:53:06.308Z,31.10
2018-03-25T03:54:06.299Z,30.50
2018-03-25T03:55:06.291Z,31.80
2018-03-25T03:56:06.284Z,29.40
2018-03-25T03:57:06.273Z,31.80
2018-03-25T03:58:06.258Z,31.80
2018-03-25T03:59:06.252Z,30.30
2018-03-25T04:00:06.238Z,30.00
2018-03-25T04:01:06.228Z,30.20
2018-03-25T04:02:06.222Z,30.10
2018-03-25T04:03:06.223Z,30.80
2018-03-25T04:04:06.200Z,30.30
2018-03-25T04:05:06.191Z,29.50
2018-03-25T04:06:06.176Z,27.90
2018-03-25T04:07:06.161Z,27.10
2018-03-25T04:08:06.159Z,27.30
2018-03-25T04:09:06.197Z,26.10
2018-03-25T04:10:06.136Z,25.80
2018-03-25T04:11:06.131Z,26.10
2018-03-25T04:12:06.116Z,28.60
2018-03-25T04:13:06.105Z,27.90
2018-03-25T04:14:06.096Z,29.70
2018-03-25T04:15:06.084Z,29.90
2018-03-25T04:16:06.076Z,29.90
2018-03-25T04:17:06.071Z,29.00
2018-03-25T04:18:06.056Z,28.30
2018-03-25T04:19:06.046Z,28.50
2018-03-25T04:20:06.033Z,27.20
2018-03-25T04:21:06.024Z,28.60
2018-03-25T04:22:06.033Z,29.20
2018-03-25T04:23:06.014Z,29.30
2018-03-25T04:24:05.995Z,28.40
2018-03-25T04:25:05.987Z,29.90
2018-03-25T04:26:05.970Z,30.40
2018-03-25T04:27:05.961Z,31.60
2018-03-25T04:28:05.951Z,30.50
2018-03-25T04:29:05.954Z,29.50
2018-03-25T04:30:05.930Z,28.60
2018-03-25T04:31:05.917Z,28.70
2018-03-25T04:32:05.918Z,28.40
2018-03-25T04:33:05.905Z,28.20
2018-03-25T04:34:05.889Z,27.90
2018-03-25T04:35:05.888Z,29.30
2018-03-25T04:36:05.867Z,28.90
2018-03-25T04:37:05.856Z,28.10
2018-03-25T04:38:05.847Z,27.60
2018-03-25T04:39:05.838Z,28.00
2018-03-25T04:40:05.837Z,28.60
2018-03-25T04:41:05.815Z,29.50
2018-03-25T04:42:05.805Z,29.70
2018-03-25T04:43:05.787Z,29.80
2018-03-25T04:44:05.783Z,28.40
2018-03-25T04:45:05.772Z,30.70
2018-03-25T04:46:05.760Z,29.10
2018-03-25T04:47:05.758Z,28.40
2018-03-25T04:48:05.754Z,28.30
2018-03-25T04:49:05.730Z,29.70
2018-03-25T04:50:05.730Z,28.30
2018-03-25T04:51:05.725Z,29.50
2018-03-25T04:52:05.699Z,29.60
2018-03-25T04:53:05.684Z,28.70
2018-03-25T04:54:05.674Z,29.10
2018-03-25T04:55:05.665Z,28.70
2018-03-25T04:56:05.657Z,28.70
2018-03-25T04:57:05.643Z,29.90
2018-03-25T04:58:05.630Z,32.60
2018-03-25T04:59:05.624Z,31.10
2018-03-25T05:00:05.607Z,30.70
2018-03-25T05:01:05.600Z,32.30
2018-03-25T05:02:05.592Z,29.90
2018-03-25T05:03:05.581Z,31.20
2018-03-25T05:04:05.568Z,31.20
2018-03-25T05:05:05.557Z,31.20
2018-03-25T05:06:05.546Z,29.30
2018-03-25T05:07:05.537Z,30.10
2018-03-25T05:08:05.525Z,30.00
2018-03-25T05:09:05.513Z,29.30
2018-03-25T05:10:05.504Z,30.60
2018-03-25T05:11:05.505Z,36.00
2018-03-25T05:12:05.484Z,33.30
2018-03-25T05:13:05.474Z,33.20
2018-03-25T05:14:05.460Z,30.10
2018-03-25T05:15:05.451Z,32.80
2018-03-25T05:16:05.440Z,33.10
2018-03-25T05:17:05.428Z,31.00
2018-03-25T05:18:05.418Z,33.60
2018-03-25T05:19:05.405Z,35.50
2018-03-25T05:20:05.394Z,32.40
2018-03-25T05:21:05.387Z,32.90
2018-03-25T05:22:05.375Z,31.30
2018-03-25T05:23:05.363Z,30.00
2018-03-25T05:24:05.353Z,31.60
2018-03-25T05:25:05.342Z,30.90
2018-03-25T05:26:05.329Z,33.40
2018-03-25T05:27:05.319Z,33.10
2018-03-25T05:28:05.368Z,32.50
2018-03-25T05:29:05.295Z,32.30
2018-03-25T05:30:05.283Z,33.50
2018-03-25T05:31:05.276Z,33.40
2018-03-25T05:32:05.265Z,34.80
2018-03-25T05:33:05.261Z,32.40
2018-03-25T05:34:05.248Z,32.40
2018-03-25T05:35:05.231Z,32.40
2018-03-25T05:36:05.222Z,31.50
2018-03-25T05:37:05.214Z,31.20
2018-03-25T05:38:05.204Z,31.00
2018-03-25T05:39:05.190Z,31.20
2018-03-25T05:40:05.188Z,30.40
2018-03-25T05:41:05.169Z,30.80
2018-03-25T05:42:05.158Z,31.70
2018-03-25T05:43:05.146Z,29.70
2018-03-25T05:44:05.139Z,30.40
2018-03-25T05:45:05.125Z,30.90
2018-03-25T05:46:05.116Z,30.10
2018-03-25T05:47:05.104Z,28.00
2018-03-25T05:48:05.147Z,27.20
2018-03-25T05:49:05.084Z,27.90
2018-03-25T05:50:05.075Z,27.20
2018-03-25T05:51:05.066Z,26.80
2018-03-25T05:52:05.055Z,25.90
2018-03-25T05:53:05.044Z,26.40
2018-03-25T05:54:05.051Z,25.80
2018-03-25T05:55:05.028Z,26.90
2018-03-25T05:56:05.017Z,27.40
2018-03-25T05:57:05.004Z,26.50
2018-03-25T05:58:04.994Z,26.50
2018-03-25T05:59:05.005Z,25.10
2018-03-25T06:00:04.972Z,25.40
2018-03-25T06:01:04.974Z,23.50
2018-03-25T06:02:04.957Z,25.00
2018-03-25T06:03:04.946Z,23.90
2018-03-25T06:04:04.937Z,25.70
2018-03-25T06:05:04.926Z,26.50
2018-03-25T06:06:04.916Z,26.50
2018-03-25T06:07:04.937Z,25.70
2018-03-25T06:08:04.897Z,25.80
2018-03-25T06:09:04.887Z,30.20
2018-03-25T06:10:04.882Z,24.80
2018-03-25T06:11:04.870Z,24.70
2018-03-25T06:12:04.863Z,24.60
2018-03-25T06:13:04.854Z,25.00
2018-03-25T06:14:04.845Z,23.50
2018-03-25T06:15:04.866Z,23.70
2018-03-25T06:16:04.826Z,23.90
2018-03-25T06:17:04.818Z,22.90
2018-03-25T06:18:04.807Z,23.40
2018-03-25T06:19:04.802Z,23.60
2018-03-25T06:20:04.792Z,25.20
2018-03-25T06:21:04.784Z,23.20
2018-03-25T06:22:04.780Z,22.70
2018-03-25T06:23:04.768Z,23.90
2018-03-25T06:24:04.760Z,22.60
2018-03-25T06:25:04.750Z,23.90
2018-03-25T06:26:04.744Z,24.70
2018-03-25T06:27:04.735Z,24.90
2018-03-25T06:28:04.730Z,24.00
2018-03-25T06:29:04.723Z,23.90
2018-03-25T06:30:04.715Z,25.80
2018-03-25T06:31:04.719Z,26.60
2018-03-25T06:32:04.702Z,24.70
2018-03-25T06:33:04.723Z,25.50
2018-03-25T06:34:04.687Z,26.50
2018-03-25T06:35:04.698Z,24.80
2018-03-25T06:36:04.691Z,23.00
2018-03-25T06:37:04.671Z,22.70
2018-03-25T06:38:04.662Z,21.80
2018-03-25T06:39:04.657Z,22.50
2018-03-25T06:40:04.648Z,22.60
2018-03-25T06:41:04.632Z,22.10
2018-03-25T06:42:04.627Z,20.60
2018-03-25T06:43:04.629Z,21.30
2018-03-25T06:44:04.624Z,21.60
2018-03-25T06:45:04.611Z,21.90
2018-03-25T06:46:04.611Z,22.50
2018-03-25T06:47:04.652Z,19.90
2018-03-25T06:48:04.601Z,19.90
2018-03-25T06:49:04.581Z,19.20
2018-03-25T06:50:04.650Z,19.90
2018-03-25T06:51:04.583Z,20.20
2018-03-25T06:52:04.582Z,20.50
2018-03-25T06:53:04.569Z,19.10
2018-03-25T06:54:04.569Z,19.20
2018-03-25T06:55:04.562Z,18.10
2018-03-25T06:56:04.554Z,17.10
2018-03-25T06:57:04.552Z,18.40
2018-03-25T06:58:04.557Z,20.80
2018-03-25T06:59:04.548Z,17.00
2018-03-25T07:00:04.544Z,16.30
2018-03-25T07:01:04.553Z,16.70
2018-03-25T07:02:04.536Z,16.30
2018-03-25T07:03:04.562Z,16.10
2018-03-25T07:04:04.543Z,16.20
2018-03-25T07:05:04.534Z,16.20
2018-03-25T07:06:04.528Z,15.80
2018-03-25T07:07:04.524Z,16.20
2018-03-25T07:08:04.547Z,15.90
2018-03-25T07:09:04.524Z,15.60
2018-03-25T07:10:04.524Z,15.50
2018-03-25T07:11:04.518Z,15.80
2018-03-25T07:12:04.522Z,16.00
2018-03-25T07:13:04.517Z,15.70
2018-03-25T07:14:04.523Z,16.50
2018-03-25T07:15:04.521Z,16.00
2018-03-25T07:16:04.533Z,16.30
2018-03-25T07:17:04.515Z,16.20
2018-03-25T07:18:04.516Z,16.40
2018-03-25T07:19:04.516Z,16.60
2018-03-25T07:20:04.533Z,16.30
2018-03-25T07:21:04.533Z,16.30
2018-03-25T07:22:04.522Z,16.80
2018-03-25T07:23:04.518Z,16.80
2018-03-25T07:24:04.521Z,16.30
2018-03-25T07:25:04.521Z,16.50
2018-03-25T07:26:04.518Z,17.10
2018-03-25T07:27:04.522Z,16.50
2018-03-25T07:28:04.528Z,16.90
2018-03-25T07:29:04.526Z,16.90
2018-03-25T07:30:04.535Z,16.90
2018-03-25T07:31:04.546Z,16.30
2018-03-25T07:32:04.541Z,16.90
2018-03-25T07:33:04.546Z,16.80
2018-03-25T07:34:04.550Z,16.70
2018-03-25T07:35:04.545Z,16.50
2018-03-25T07:36:04.565Z,17.70
2018-03-25T07:37:04.549Z,17.20
2018-03-25T07:38:04.545Z,16.50
2018-03-25T07:39:04.553Z,17.20
2018-03-25T07:40:04.553Z,16.80
2018-03-25T07:41:04.558Z,17.20
2018-03-25T07:42:04.556Z,17.20
2018-03-25T07:43:04.559Z,17.50
2018-03-25T07:44:04.576Z,17.60
2018-03-25T07:45:04.574Z,17.80
2018-03-25T07:46:04.569Z,17.00
2018-03-25T07:47:04.569Z,17.60
2018-03-25T07:48:04.574Z,17.60
2018-03-25T07:49:04.570Z,17.40
2018-03-25T07:50:04.660Z,17.40
2018-03-25T07:51:04.578Z,16.80
2018-03-25T07:52:04.586Z,17.40
2018-03-25T07:53:04.583Z,17.50
2018-03-25T07:54:04.588Z,18.90
2018-03-25T07:55:04.586Z,19.00
2018-03-25T07:56:04.592Z,18.00
2018-03-25T07:57:04.596Z,18.80
2018-03-25T07:58:04.592Z,17.80
2018-03-25T07:59:04.596Z,18.70
2018-03-25T08:00:04.591Z,17.90
2018-03-25T08:01:04.597Z,18.30
2018-03-25T08:02:04.605Z,17.80
2018-03-25T08:03:04.597Z,17.80
2018-03-25T08:04:04.601Z,17.20
2018-03-25T08:05:04.599Z,17.20
2018-03-25T08:06:04.625Z,16.70
2018-03-25T08:07:04.589Z,17.20
2018-03-25T08:08:04.600Z,16.80
2018-03-25T08:09:04.598Z,17.10
2018-03-25T08:10:04.598Z,17.10
2018-03-25T08:11:04.602Z,17.20
2018-03-25T08:12:04.599Z,16.40
2018-03-25T08:13:04.623Z,17.00
2018-03-25T08:14:04.599Z,16.50
2018-03-25T08:15:04.734Z,16.70
2018-03-25T08:16:04.595Z,16.70
2018-03-25T08:17:04.597Z,16.80
2018-03-25T08:18:04.620Z,17.10
2018-03-25T08:19:04.599Z,16.90
2018-03-25T08:20:04.596Z,16.90
2018-03-25T08:21:04.593Z,16.50
2018-03-25T08:22:04.589Z,16.60
2018-03-25T08:23:04.590Z,16.40
2018-03-25T08:24:04.586Z,16.20
2018-03-25T08:25:04.607Z,16.40
2018-03-25T08:26:04.600Z,16.60
2018-03-25T08:27:04.610Z,16.50
2018-03-25T08:28:04.603Z,17.00
2018-03-25T08:29:04.610Z,16.20
2018-03-25T08:30:04.623Z,16.60
2018-03-25T08:31:04.609Z,15.70
2018-03-25T08:32:04.602Z,15.90
2018-03-25T08:33:04.611Z,16.20
2018-03-25T08:34:04.620Z,14.60
2018-03-25T08:35:04.626Z,16.10
2018-03-25T08:36:04.634Z,15.70
2018-03-25T08:37:04.637Z,15.90
2018-03-25T08:38:04.648Z,16.50
2018-03-25T08:39:04.746Z,16.40
2018-03-25T08:40:04.660Z,17.20
2018-03-25T08:41:04.756Z,16.80
2018-03-25T08:42:04.701Z,16.50
2018-03-25T08:43:04.714Z,16.60
2018-03-25T08:44:04.933Z,16.10
2018-03-25T08:45:04.990Z,16.20
2018-03-25T08:46:05.796Z,16.90
2018-03-25T08:47:05.547Z,17.30
2018-03-25T08:48:05.503Z,17.10
2018-03-25T08:49:04.890Z,17.10
2018-03-25T08:50:04.752Z,16.40
2018-03-25T08:51:04.763Z,17.80
2018-03-25T08:52:04.768Z,16.60
2018-03-25T08:53:04.790Z,16.60
2018-03-25T08:54:04.799Z,17.10
2018-03-25T08:55:04.806Z,17.10
2018-03-25T08:56:04.811Z,16.80
2018-03-25T08:57:04.828Z,16.90
2018-03-25T08:58:04.827Z,16.30
2018-03-25T08:59:04.848Z,16.20
2018-03-25T09:00:04.857Z,17.00
2018-03-25T09:01:04.868Z,16.70
2018-03-25T09:02:04.879Z,16.90
2018-03-25T09:03:04.887Z,15.90
2018-03-25T09:04:04.894Z,17.40
2018-03-25T09:05:04.900Z,16.50
2018-03-25T09:06:04.928Z,16.50
2018-03-25T09:07:04.931Z,16.50
2018-03-25T09:08:04.948Z,16.50
2018-03-25T09:09:04.945Z,16.60
2018-03-25T09:10:04.946Z,16.50
2018-03-25T09:11:04.954Z,17.00
2018-03-25T09:12:04.961Z,17.00
2018-03-25T09:13:04.992Z,16.60
2018-03-25T09:14:05.008Z,16.50
2018-03-25T09:15:05.010Z,16.10
2018-03-25T09:16:05.000Z,16.00
2018-03-25T09:17:05.008Z,15.90
2018-03-25T09:18:05.024Z,16.40
2018-03-25T09:19:05.028Z,15.80
2018-03-25T09:20:05.037Z,16.20
2018-03-25T09:21:05.047Z,16.10
2018-03-25T09:22:05.066Z,16.20
2018-03-25T09:23:05.076Z,17.00
2018-03-25T09:24:05.096Z,16.90
2018-03-25T09:25:05.086Z,15.80
2018-03-25T09:26:05.095Z,16.70
2018-03-25T09:27:05.102Z,16.90
2018-03-25T09:28:05.115Z,16.80
2018-03-25T09:29:05.123Z,16.60
2018-03-25T09:30:05.133Z,16.60
2018-03-25T09:31:05.149Z,17.30
2018-03-25T09:32:05.149Z,16.90
2018-03-25T09:33:05.158Z,16.60
2018-03-25T09:34:05.168Z,16.20
2018-03-25T09:35:05.206Z,16.20
2018-03-25T09:36:05.199Z,17.20
2018-03-25T09:37:05.212Z,16.90
2018-03-25T09:38:05.221Z,16.50
2018-03-25T09:39:05.233Z,16.90
2018-03-25T09:40:05.254Z,17.40
2018-03-25T09:41:05.254Z,16.70
2018-03-25T09:42:05.264Z,16.60
2018-03-25T09:43:05.274Z,17.20
2018-03-25T09:44:05.288Z,16.60
2018-03-25T09:45:05.310Z,17.60
2018-03-25T09:46:05.331Z,16.70
2018-03-25T09:47:05.326Z,17.30
2018-03-25T09:48:05.351Z,16.70
2018-03-25T09:49:05.360Z,17.20
2018-03-25T09:50:05.360Z,16.60
2018-03-25T09:51:05.368Z,17.40
2018-03-25T09:52:05.378Z,16.90
2018-03-25T09:53:05.418Z,16.80
2018-03-25T09:54:05.658Z,16.90
2018-03-25T09:55:05.804Z,16.30
2018-03-25T09:56:05.463Z,17.00
2018-03-25T09:57:05.491Z,16.20
2018-03-25T09:58:05.467Z,16.90
2018-03-25T09:59:05.467Z,17.00
2018-03-25T10:00:05.483Z,17.20
2018-03-25T10:01:05.489Z,18.00
2018-03-25T10:02:05.492Z,17.80
2018-03-25T10:03:05.523Z,17.40
2018-03-25T10:04:05.531Z,16.80
2018-03-25T10:05:05.527Z,18.10
2018-03-25T10:06:05.545Z,17.50
2018-03-25T10:07:05.546Z,17.20
2018-03-25T10:08:05.558Z,17.20
2018-03-25T10:09:05.575Z,17.70
2018-03-25T10:10:05.583Z,17.70
2018-03-25T10:11:05.589Z,18.00
2018-03-25T10:12:05.603Z,18.10
2018-03-25T10:13:05.621Z,18.30
2018-03-25T10:14:05.634Z,17.90
2018-03-25T10:15:05.633Z,18.20
2018-03-25T10:16:05.639Z,17.90
2018-03-25T10:17:05.660Z,17.70
2018-03-25T10:18:05.667Z,17.90
2018-03-25T10:19:05.677Z,16.80
2018-03-25T10:20:05.713Z,17.80
2018-03-25T10:21:05.716Z,17.20
2018-03-25T10:22:05.722Z,16.90
2018-03-25T10:23:05.732Z,16.80
2018-03-25T10:24:05.737Z,16.00
2018-03-25T10:25:05.760Z,15.40
2018-03-25T10:26:05.780Z,15.00
2018-03-25T10:27:05.841Z,16.70
2018-03-25T10:28:05.816Z,17.70
2018-03-25T10:29:05.813Z,17.20
2018-03-25T10:30:05.833Z,17.00
2018-03-25T10:31:05.856Z,17.20
2018-03-25T10:32:05.970Z,17.00
2018-03-25T10:33:05.843Z,17.70
2018-03-25T10:34:05.888Z,17.50
2018-03-25T10:35:05.868Z,17.00
2018-03-25T10:36:05.909Z,17.20
2018-03-25T10:37:05.909Z,17.50
2018-03-25T10:38:05.903Z,17.70
2018-03-25T10:39:05.920Z,17.00
2018-03-25T10:40:05.959Z,16.70
2018-03-25T10:41:05.942Z,16.80
2018-03-25T10:42:05.949Z,16.20
2018-03-25T10:43:05.980Z,17.20
2018-03-25T10:44:05.989Z,17.50
2018-03-25T10:45:06.000Z,16.40
2018-03-25T10:46:06.028Z,17.00
2018-03-25T10:47:06.024Z,17.80
2018-03-25T10:48:06.048Z,17.70
2018-03-25T10:49:06.054Z,17.30
2018-03-25T10:50:06.068Z,16.90
2018-03-25T10:51:06.084Z,16.50
2018-03-25T10:52:06.099Z,16.50
2018-03-25T10:53:06.108Z,17.00
2018-03-25T10:54:06.149Z,16.60
2018-03-25T10:55:06.151Z,16.00
2018-03-25T10:56:06.148Z,17.30
2018-03-25T10:57:06.171Z,17.60
2018-03-25T10:58:06.175Z,17.40
2018-03-25T10:59:06.203Z,17.50
2018-03-25T11:00:06.225Z,16.80
2018-03-25T11:01:06.228Z,16.70
2018-03-25T11:02:06.238Z,17.90
2018-03-25T11:03:06.254Z,17.30
2018-03-25T11:04:06.278Z,16.90
2018-03-25T11:05:06.297Z,16.70
2018-03-25T11:06:06.290Z,17.30
2018-03-25T11:07:06.312Z,16.00
2018-03-25T11:08:06.325Z,17.10
2018-03-25T11:09:06.337Z,17.50
2018-03-25T11:10:06.354Z,16.40
2018-03-25T11:11:06.364Z,15.90
2018-03-25T11:12:06.374Z,15.30
2018-03-25T11:13:06.392Z,15.20
2018-03-25T11:14:06.408Z,14.10
2018-03-25T11:15:06.421Z,15.70
2018-03-25T11:16:06.432Z,15.30
2018-03-25T11:17:06.449Z,16.70
2018-03-25T11:18:06.458Z,15.40
2018-03-25T11:19:06.470Z,12.90
2018-03-25T11:20:06.485Z,13.10
2018-03-25T11:21:06.495Z,14.00
2018-03-25T11:22:06.522Z,13.30
2018-03-25T11:23:06.536Z,13.00
2018-03-25T11:24:06.536Z,11.80
2018-03-25T11:25:06.547Z,11.40
2018-03-25T11:26:06.609Z,11.90
2018-03-25T11:27:06.614Z,12.80
2018-03-25T11:28:06.624Z,13.00
2018-03-25T11:29:06.616Z,12.60
2018-03-25T11:30:06.627Z,12.70
2018-03-25T11:31:06.645Z,12.80
2018-03-25T11:32:06.657Z,12.30
2018-03-25T11:33:06.670Z,12.30
2018-03-25T11:34:06.686Z,10.20
2018-03-25T11:35:06.704Z,11.50
2018-03-25T11:36:06.719Z,11.40
2018-03-25T11:37:06.732Z,12.20
2018-03-25T11:38:06.749Z,15.40
2018-03-25T11:39:06.764Z,13.20
2018-03-25T11:40:06.778Z,13.10
2018-03-25T11:41:06.824Z,14.10
2018-03-25T11:42:06.810Z,14.30
2018-03-25T11:43:06.823Z,14.00
2018-03-25T11:44:06.852Z,14.20
2018-03-25T11:45:06.855Z,13.40
2018-03-25T11:46:06.867Z,12.50
2018-03-25T11:47:06.886Z,11.20
2018-03-25T11:48:06.904Z,11.40
2018-03-25T11:49:06.913Z,12.10
2018-03-25T11:50:06.944Z,12.10
2018-03-25T11:51:06.942Z,11.70
2018-03-25T11:52:06.948Z,13.20
2018-03-25T11:53:06.969Z,12.80
2018-03-25T11:54:06.991Z,13.60
2018-03-25T11:55:06.999Z,14.00
2018-03-25T11:56:07.020Z,13.90
2018-03-25T11:57:07.050Z,12.70
2018-03-25T11:58:07.064Z,10.30
2018-03-25T11:59:07.064Z,9.90
2018-03-25T12:00:07.069Z,11.30
2018-03-25T12:01:07.078Z,12.20
2018-03-25T12:02:07.092Z,11.70
2018-03-25T12:03:07.108Z,11.80
2018-03-25T12:04:07.122Z,12.80
2018-03-25T12:05:07.142Z,13.60
2018-03-25T12:06:07.145Z,13.30
2018-03-25T12:07:07.160Z,12.40
2018-03-25T12:08:07.174Z,11.90
2018-03-25T12:09:07.196Z,11.90
2018-03-25T12:10:07.202Z,11.50
2018-03-25T12:11:07.255Z,11.40
2018-03-25T12:12:07.231Z,10.00
2018-03-25T12:13:07.242Z,8.40
2018-03-25T12:14:07.269Z,9.40
2018-03-25T12:15:07.285Z,10.30
2018-03-25T12:16:07.303Z,11.40
2018-03-25T12:17:07.298Z,11.50
2018-03-25T12:18:07.313Z,10.10
2018-03-25T12:19:07.340Z,10.30
2018-03-25T12:20:07.340Z,10.10
2018-03-25T12:21:07.352Z,9.80
2018-03-25T12:22:07.363Z,6.60
2018-03-25T12:23:07.387Z,6.90
2018-03-25T12:24:07.394Z,8.10
2018-03-25T12:25:07.417Z,8.00
2018-03-25T12:26:07.420Z,8.30
2018-03-25T12:27:07.432Z,8.10
2018-03-25T12:28:07.455Z,9.10
2018-03-25T12:29:07.456Z,8.60
2018-03-25T12:30:07.461Z,8.40
2018-03-25T12:31:07.473Z,8.80
2018-03-25T12:32:07.489Z,10.30
2018-03-25T12:33:07.556Z,10.20
2018-03-25T12:34:07.511Z,10.20
2018-03-25T12:35:07.519Z,9.70
2018-03-25T12:36:07.532Z,9.70
2018-03-25T12:37:07.540Z,10.00
2018-03-25T12:38:07.540Z,10.10
2018-03-25T12:39:07.536Z,10.80
2018-03-25T12:40:07.551Z,10.70
2018-03-25T12:41:07.569Z,10.80
2018-03-25T12:42:07.567Z,9.00
2018-03-25T12:43:07.573Z,8.60
2018-03-25T12:44:07.570Z,8.70
2018-03-25T12:45:07.576Z,7.90
2018-03-25T12:46:07.588Z,8.60
2018-03-25T12:47:07.584Z,7.20
2018-03-25T12:48:07.589Z,6.00
2018-03-25T12:49:07.588Z,6.70
2018-03-25T12:50:07.591Z,7.40
2018-03-25T12:51:07.597Z,7.50
2018-03-25T12:52:07.599Z,7.50
2018-03-25T12:53:07.601Z,7.80
2018-03-25T12:54:07.600Z,8.00
2018-03-25T12:55:07.601Z,7.30
2018-03-25T12:56:07.608Z,7.70
2018-03-25T12:57:07.630Z,7.70
2018-03-25T12:59:22.515Z,8.40
